Rosedale, Louisiana
Current Conditions -  °F | °C
As of 9:53 AM on Tuesday 21 Oct 2014 (Local Time) from KBTR Reporting Station
Clear Clear  
Wind Chill: 68°   Ceiling: Unl
Heat Index: 68°   Visibility: 10mi
Dew Point: 54°   Wind: 8mph
Humidity: 61%   Direction: 60°ENE
Pressure: 30.08"   Gusts: NA
Location:  30.44°N, 91.45°W
Report Text: KBTR 211453Z AUTO 06007KT 10SM CLR 20/12 A3008 RMK AO2 SLP186 T02000122 51013 TSNO
Loading
Personal Weather Stations






























Interactive Weather Map
Tropical Storm Tracking
New forecast layout! Learn more

10-Day Weather Forecast

Advertisements
Track Severe Weather on mobile